createdAt,value
2022-10-15T00:01:35.468Z,1.43
2022-10-15T00:04:05.850Z,1.23
2022-10-15T00:06:34.068Z,2.80
2022-10-15T00:09:02.848Z,2.03
2022-10-15T00:11:31.357Z,1.30
2022-10-15T00:14:01.594Z,1.30
2022-10-15T00:16:30.607Z,1.43
2022-10-15T00:19:01.230Z,1.40
2022-10-15T00:21:30.749Z,2.33
2022-10-15T00:24:00.770Z,2.70
2022-10-15T00:26:30.427Z,3.07
2022-10-15T00:29:01.720Z,1.80
2022-10-15T00:31:31.554Z,2.90
2022-10-15T00:34:01.622Z,1.50
2022-10-15T00:36:33.387Z,1.40
2022-10-15T00:39:02.219Z,1.90
2022-10-15T00:41:33.254Z,2.53
2022-10-15T00:44:02.833Z,2.23
2022-10-15T00:46:34.594Z,2.33
2022-10-15T00:49:10.364Z,2.90
2022-10-15T00:51:43.525Z,1.97
2022-10-15T00:54:12.875Z,2.33
2022-10-15T00:56:42.716Z,1.57
2022-10-15T00:59:12.394Z,2.13
2022-10-15T01:01:40.691Z,1.90
2022-10-15T01:04:09.457Z,1.73
2022-10-15T01:06:40.420Z,1.83
2022-10-15T01:09:08.655Z,2.00
2022-10-15T01:11:42.017Z,1.67
2022-10-15T01:14:24.227Z,2.20
2022-10-15T01:16:57.300Z,1.70
2022-10-15T01:19:39.015Z,3.63
2022-10-15T01:22:13.281Z,1.73
2022-10-15T01:24:54.149Z,1.80
2022-10-15T01:27:30.667Z,2.40
2022-10-15T01:30:20.372Z,2.10
2022-10-15T01:32:55.571Z,2.30
2022-10-15T01:35:32.953Z,2.10
2022-10-15T01:38:06.002Z,2.57
2022-10-15T01:40:38.621Z,3.57
2022-10-15T01:43:12.981Z,3.70
2022-10-15T01:45:49.692Z,2.80
2022-10-15T01:48:19.266Z,3.00
2022-10-15T01:50:51.993Z,2.70
2022-10-15T01:53:30.395Z,2.83
2022-10-15T01:56:01.831Z,3.30
2022-10-15T01:58:31.974Z,2.53
2022-10-15T02:01:01.757Z,3.30
2022-10-15T02:03:30.230Z,5.93
2022-10-15T02:06:03.583Z,6.17
2022-10-15T02:08:39.592Z,6.17
2022-10-15T02:11:11.752Z,11.33
2022-10-15T02:13:53.986Z,22.63
2022-10-15T02:16:27.549Z,21.83
2022-10-15T02:19:05.967Z,22.57
2022-10-15T02:21:39.834Z,20.93
2022-10-15T02:24:12.858Z,17.73
2022-10-15T02:26:43.469Z,12.80
2022-10-15T02:29:18.040Z,11.37
2022-10-15T02:31:49.919Z,14.97
2022-10-15T02:34:26.250Z,16.50
2022-10-15T02:37:01.905Z,19.60
2022-10-15T02:39:30.179Z,18.50
2022-10-15T02:41:59.117Z,18.87
2022-10-15T02:44:27.299Z,20.53
2022-10-15T02:46:57.200Z,21.00
2022-10-15T02:49:25.350Z,26.67
2022-10-15T02:51:53.759Z,24.87
2022-10-15T02:54:21.810Z,24.23
2022-10-15T02:56:50.196Z,24.27
2022-10-15T02:59:19.811Z,23.77
2022-10-15T03:01:48.073Z,21.90
2022-10-15T03:04:17.549Z,19.83
2022-10-15T03:06:45.816Z,21.37
2022-10-15T03:09:13.875Z,22.63
2022-10-15T03:11:42.272Z,22.47
2022-10-15T03:14:10.792Z,24.10
2022-10-15T03:16:38.847Z,23.83
2022-10-15T03:19:06.986Z,21.90
2022-10-15T03:21:36.474Z,20.00
2022-10-15T03:24:05.039Z,21.27
2022-10-15T03:26:33.088Z,16.47
2022-10-15T03:29:02.619Z,22.20
2022-10-15T03:31:30.727Z,20.43
2022-10-15T03:33:58.757Z,20.27
2022-10-15T03:36:27.624Z,20.27
2022-10-15T03:38:57.374Z,19.90
2022-10-15T03:41:25.518Z,20.87
2022-10-15T03:43:53.648Z,19.97
2022-10-15T03:46:21.750Z,18.60
2022-10-15T03:48:51.238Z,20.13
2022-10-15T03:51:22.799Z,18.70
2022-10-15T03:53:53.796Z,18.03
2022-10-15T03:56:23.705Z,15.20
2022-10-15T03:58:51.833Z,15.93
2022-10-15T04:01:20.447Z,13.50
2022-10-15T04:03:48.636Z,14.50
2022-10-15T04:06:16.657Z,12.43
2022-10-15T04:08:44.773Z,12.43
2022-10-15T04:11:13.151Z,13.17
2022-10-15T04:13:42.625Z,14.47
2022-10-15T04:16:10.742Z,13.27
2022-10-15T04:18:39.078Z,15.73
2022-10-15T04:21:07.302Z,13.87
2022-10-15T04:23:35.742Z,15.80
2022-10-15T04:26:04.110Z,17.17
2022-10-15T04:28:33.234Z,16.10
2022-10-15T04:31:03.136Z,16.30
2022-10-15T04:33:31.217Z,19.97
2022-10-15T04:36:01.083Z,18.93
2022-10-15T04:38:29.630Z,22.80
2022-10-15T04:41:02.798Z,21.73
2022-10-15T04:43:30.879Z,21.07
2022-10-15T04:46:01.191Z,23.23
2022-10-15T04:48:32.320Z,21.57
2022-10-15T04:51:05.437Z,21.47
2022-10-15T04:53:34.027Z,18.63
2022-10-15T04:56:03.719Z,20.60
2022-10-15T04:58:32.893Z,16.50
2022-10-15T05:01:04.845Z,19.73
2022-10-15T05:03:38.448Z,18.00
2022-10-15T05:06:11.045Z,17.80
2022-10-15T05:08:41.792Z,18.13
2022-10-15T05:11:12.628Z,16.57
2022-10-15T05:13:40.696Z,13.50
2022-10-15T05:16:13.829Z,12.63
2022-10-15T05:18:44.818Z,13.77
2022-10-15T05:21:14.145Z,11.03
2022-10-15T05:23:43.951Z,13.50
2022-10-15T05:26:18.694Z,10.07
2022-10-15T05:28:47.066Z,8.63
2022-10-15T05:31:19.130Z,8.00
2022-10-15T05:33:48.832Z,7.27
2022-10-15T05:36:18.544Z,7.87
2022-10-15T05:38:47.655Z,7.00
2022-10-15T05:41:15.933Z,8.33
2022-10-15T05:43:44.633Z,5.73
2022-10-15T05:46:12.700Z,6.90
2022-10-15T05:48:40.764Z,8.37
2022-10-15T05:51:14.013Z,5.70
2022-10-15T05:53:43.311Z,7.43
2022-10-15T05:56:11.762Z,5.70
2022-10-15T05:58:39.882Z,4.70
2022-10-15T06:01:24.247Z,4.37
2022-10-15T06:04:00.642Z,4.07
2022-10-15T06:06:45.685Z,4.67
2022-10-15T06:09:14.698Z,4.30
2022-10-15T06:11:42.838Z,3.63
2022-10-15T06:14:11.717Z,3.30
2022-10-15T06:16:39.750Z,3.10
2022-10-15T06:19:07.883Z,3.40
2022-10-15T06:21:40.249Z,3.40
2022-10-15T06:24:10.091Z,2.93
2022-10-15T06:26:38.380Z,2.47
2022-10-15T06:29:06.443Z,2.40
2022-10-15T06:31:34.461Z,1.80
2022-10-15T06:34:02.603Z,2.27
2022-10-15T06:36:30.928Z,1.70
2022-10-15T06:39:00.301Z,2.40
2022-10-15T06:41:28.406Z,2.00
2022-10-15T06:43:56.500Z,1.47
2022-10-15T06:46:24.939Z,1.93
2022-10-15T06:48:53.026Z,2.40
2022-10-15T06:51:21.127Z,2.10
2022-10-15T06:53:49.210Z,3.57
2022-10-15T06:56:18.935Z,1.23
2022-10-15T06:58:46.999Z,1.27
2022-10-15T07:01:15.065Z,1.17
2022-10-15T07:03:43.149Z,1.93
2022-10-15T07:06:11.464Z,0.70
2022-10-15T07:08:39.552Z,1.43
2022-10-15T07:11:09.741Z,0.50
2022-10-15T07:13:39.582Z,2.17
2022-10-15T07:16:09.558Z,1.00
2022-10-15T07:18:38.433Z,0.40
2022-10-15T07:23:37.034Z,0.43
2022-10-15T07:26:05.553Z,1.13
2022-10-15T07:28:33.808Z,1.33
2022-10-15T07:31:05.243Z,0.30
2022-10-15T07:33:34.714Z,0.10
2022-10-15T07:36:05.697Z,0.10
2022-10-15T07:38:33.967Z,0.10
2022-10-15T07:41:03.112Z,0.97
2022-10-15T07:43:31.892Z,0.40
2022-10-15T07:46:00.100Z,0.10
2022-10-15T07:48:29.599Z,0.93
2022-10-15T07:50:58.399Z,0.43
2022-10-15T07:53:27.072Z,0.03
2022-10-15T07:55:55.238Z,1.50
2022-10-15T07:58:23.315Z,1.17
2022-10-15T08:00:51.706Z,0.10
2022-10-15T08:03:19.882Z,0.23
2022-10-15T08:05:53.097Z,0.20
2022-10-15T08:08:21.248Z,0.30
2022-10-15T08:10:49.524Z,0.00
2022-10-15T08:13:17.781Z,0.03
2022-10-15T08:15:45.840Z,0.20
2022-10-15T08:18:14.334Z,0.10
2022-10-15T08:20:42.459Z,0.00
2022-10-15T08:23:16.544Z,0.10
2022-10-15T08:25:44.790Z,0.10
2022-10-15T08:28:13.493Z,0.50
2022-10-15T08:30:41.853Z,0.40
2022-10-15T08:33:09.982Z,0.30
2022-10-15T08:35:39.250Z,0.00
2022-10-15T08:38:07.337Z,0.30
2022-10-15T08:40:36.914Z,0.17
2022-10-15T08:43:07.091Z,0.00
2022-10-15T08:45:42.357Z,1.50
2022-10-15T08:48:13.961Z,0.20
2022-10-15T08:50:49.232Z,0.00
2022-10-15T08:53:23.330Z,0.00
2022-10-15T08:55:56.955Z,0.07
2022-10-15T08:58:34.730Z,0.40
2022-10-15T09:01:10.914Z,0.07
2022-10-15T09:03:45.831Z,0.60
2022-10-15T09:06:16.670Z,0.00
2022-10-15T09:08:54.726Z,0.00
2022-10-15T09:11:32.620Z,0.63
2022-10-15T09:14:00.738Z,0.10
2022-10-15T09:16:33.699Z,0.20
2022-10-15T09:19:07.219Z,0.10
2022-10-15T09:21:37.357Z,0.03
2022-10-15T09:24:06.377Z,0.10
2022-10-15T09:26:51.138Z,0.10
2022-10-15T09:29:25.874Z,0.40
2022-10-15T09:31:59.768Z,0.03
2022-10-15T09:34:34.313Z,0.10
2022-10-15T09:37:07.456Z,0.10
2022-10-15T09:39:55.340Z,0.30
2022-10-15T09:42:31.001Z,1.70
2022-10-15T09:45:02.146Z,0.10
2022-10-15T09:47:32.636Z,0.10
2022-10-15T09:50:01.106Z,0.10
2022-10-15T09:52:45.001Z,0.00
2022-10-15T09:55:25.470Z,0.10
2022-10-15T09:57:58.926Z,0.20
2022-10-15T10:00:47.680Z,0.10
2022-10-15T10:03:16.921Z,0.10
2022-10-15T10:05:46.189Z,0.10
2022-10-15T10:08:20.059Z,0.10
2022-10-15T10:10:55.959Z,1.40
2022-10-15T10:13:32.393Z,0.20
2022-10-15T10:16:06.041Z,0.10
2022-10-15T10:18:34.793Z,0.07
2022-10-15T10:21:05.614Z,0.10
2022-10-15T10:23:36.238Z,0.10
2022-10-15T10:26:07.006Z,0.00
2022-10-15T10:28:44.250Z,0.00
2022-10-15T10:31:13.462Z,0.40
2022-10-15T10:33:46.992Z,0.20
2022-10-15T10:36:26.896Z,0.30
2022-10-15T10:39:03.099Z,1.13
2022-10-15T10:41:49.665Z,0.00
2022-10-15T10:44:23.337Z,0.60
2022-10-15T10:47:13.642Z,2.83
2022-10-15T10:49:43.181Z,0.17
2022-10-15T10:52:26.290Z,0.10
2022-10-15T10:55:00.952Z,0.70
2022-10-15T10:57:43.136Z,1.00
2022-10-15T11:00:17.921Z,0.30
2022-10-15T11:02:46.117Z,0.10
2022-10-15T11:05:14.793Z,0.20
2022-10-15T11:07:53.296Z,0.87
2022-10-15T11:10:28.550Z,0.30
2022-10-15T11:15:51.142Z,0.53
2022-10-15T11:18:33.883Z,1.00
2022-10-15T11:21:15.307Z,0.87
2022-10-15T11:24:00.355Z,0.30
2022-10-15T11:26:52.100Z,0.10
2022-10-15T11:29:35.571Z,0.30
2022-10-15T11:32:17.651Z,1.60
2022-10-15T11:35:04.224Z,0.30
2022-10-15T11:37:42.852Z,0.30
2022-10-15T11:40:19.011Z,0.20
2022-10-15T11:42:56.415Z,0.13
2022-10-15T11:45:50.414Z,1.50
2022-10-15T11:48:35.707Z,0.40
2022-10-15T11:51:10.007Z,0.77
2022-10-15T11:54:01.206Z,0.10
2022-10-15T11:56:36.410Z,0.33
2022-10-15T11:59:20.659Z,0.63
2022-10-15T12:01:51.501Z,0.93
2022-10-15T12:04:30.391Z,3.13
2022-10-15T12:07:03.510Z,0.20
2022-10-15T12:09:37.643Z,0.10
2022-10-15T12:12:10.902Z,0.10
2022-10-15T12:14:45.266Z,0.67
2022-10-15T12:17:21.579Z,1.40
2022-10-15T12:19:55.904Z,7.83
2022-10-15T12:22:35.761Z,0.10
2022-10-15T12:25:04.267Z,0.37
2022-10-15T12:27:35.649Z,0.20
2022-10-15T12:30:32.394Z,0.30
2022-10-15T12:33:00.604Z,0.20
2022-10-15T12:35:40.773Z,0.60
2022-10-15T12:38:31.571Z,0.23
2022-10-15T12:41:11.536Z,0.10
2022-10-15T12:43:44.182Z,0.20
2022-10-15T12:46:14.269Z,1.27
2022-10-15T12:48:44.652Z,0.20
2022-10-15T12:51:41.405Z,0.30
2022-10-15T12:54:36.134Z,0.20
2022-10-15T12:57:26.733Z,0.10
2022-10-15T12:59:56.922Z,0.20
2022-10-15T13:02:38.746Z,0.83
2022-10-15T13:05:09.845Z,2.27
2022-10-15T13:07:41.986Z,1.87
2022-10-15T13:10:21.932Z,0.60
2022-10-15T13:12:55.074Z,0.50
2022-10-15T13:15:25.083Z,0.40
2022-10-15T13:17:54.549Z,0.50
2022-10-15T13:20:33.357Z,0.50
2022-10-15T13:23:30.054Z,0.20
2022-10-15T13:26:22.894Z,1.17
2022-10-15T13:28:52.868Z,0.40
2022-10-15T13:31:29.097Z,0.10
2022-10-15T13:34:02.255Z,0.30
2022-10-15T13:36:33.831Z,0.10
2022-10-15T13:39:06.521Z,0.10
2022-10-15T13:41:37.307Z,0.53
2022-10-15T13:44:06.303Z,0.73
2022-10-15T13:46:38.967Z,0.37
2022-10-15T13:49:13.988Z,1.03
2022-10-15T13:51:44.339Z,0.33
2022-10-15T13:54:18.568Z,0.20
2022-10-15T13:56:55.703Z,0.20
2022-10-15T13:59:24.351Z,0.30
2022-10-15T14:02:00.759Z,0.87
2022-10-15T14:04:30.422Z,0.20
2022-10-15T14:07:02.316Z,0.50
2022-10-15T14:09:35.023Z,0.37
2022-10-15T14:12:07.132Z,0.37
2022-10-15T14:14:36.821Z,0.20
2022-10-15T14:17:07.249Z,0.40
2022-10-15T14:19:38.133Z,0.10
2022-10-15T14:22:06.356Z,4.10
2022-10-15T14:24:37.231Z,3.13
2022-10-15T14:27:08.564Z,1.53
2022-10-15T14:29:39.985Z,1.63
2022-10-15T14:32:23.153Z,2.80
2022-10-15T14:34:52.100Z,0.30
2022-10-15T14:37:32.797Z,0.53
2022-10-15T14:40:18.196Z,1.33
2022-10-15T14:42:48.830Z,1.20
2022-10-15T14:45:24.871Z,1.90
2022-10-15T14:47:55.683Z,1.30
2022-10-15T14:50:27.679Z,0.40
2022-10-15T14:52:56.424Z,1.83
2022-10-15T14:55:38.392Z,0.50
2022-10-15T14:58:10.202Z,0.60
2022-10-15T15:00:43.601Z,1.70
2022-10-15T15:03:16.078Z,1.43
2022-10-15T15:05:48.579Z,2.87
2022-10-15T15:08:17.559Z,1.37
2022-10-15T15:13:24.395Z,0.50
2022-10-15T15:15:53.359Z,0.50
2022-10-15T15:18:21.810Z,0.60
2022-10-15T15:20:51.303Z,1.07
2022-10-15T15:23:22.827Z,1.37
2022-10-15T15:25:53.310Z,0.90
2022-10-15T15:28:23.314Z,1.63
2022-10-15T15:30:57.164Z,2.40
2022-10-15T15:33:26.020Z,1.00
2022-10-15T15:35:56.798Z,0.50
2022-10-15T15:38:30.778Z,0.50
2022-10-15T15:41:04.868Z,0.83
2022-10-15T15:43:33.160Z,0.97
2022-10-15T15:46:01.369Z,1.30
2022-10-15T15:48:29.466Z,3.27
2022-10-15T15:51:01.008Z,1.83
2022-10-15T15:53:29.184Z,1.03
2022-10-15T15:55:57.247Z,1.57
2022-10-15T15:58:26.760Z,2.33
2022-10-15T16:00:54.909Z,1.37
2022-10-15T16:03:23.359Z,2.07
2022-10-15T16:05:52.666Z,2.67
2022-10-15T16:08:20.930Z,2.10
2022-10-15T16:10:49.065Z,3.17
2022-10-15T16:13:18.509Z,0.77
2022-10-15T16:15:48.458Z,0.93
2022-10-15T16:18:16.590Z,0.60
2022-10-15T16:20:48.510Z,0.90
2022-10-15T16:23:17.262Z,0.80
2022-10-15T16:25:45.511Z,2.77
2022-10-15T16:28:13.993Z,2.60
2022-10-15T16:30:42.077Z,1.67
2022-10-15T16:33:11.627Z,2.53
2022-10-15T16:35:39.787Z,3.63
2022-10-15T16:38:08.355Z,1.70
2022-10-15T16:40:36.635Z,4.60
2022-10-15T16:43:04.919Z,12.57
2022-10-15T16:45:33.164Z,10.30
2022-10-15T16:48:01.447Z,4.70
2022-10-15T16:50:31.886Z,4.10
2022-10-15T16:52:59.999Z,3.92
2022-10-15T16:55:28.887Z,3.17
2022-10-15T16:57:57.401Z,1.30
2022-10-15T17:00:25.628Z,4.37
2022-10-15T17:02:55.085Z,2.90
2022-10-15T17:05:23.241Z,4.60
2022-10-15T17:07:52.799Z,3.63
2022-10-15T17:10:25.663Z,0.87
2022-10-15T17:12:55.202Z,2.00
2022-10-15T17:15:24.997Z,1.53
2022-10-15T17:17:53.306Z,1.83
2022-10-15T17:20:21.747Z,3.10
2022-10-15T17:22:49.904Z,3.08
2022-10-15T17:25:19.878Z,1.00
2022-10-15T17:27:48.061Z,2.10
2022-10-15T17:30:16.533Z,2.80
2022-10-15T17:32:44.627Z,1.53
2022-10-15T17:35:12.718Z,9.20
2022-10-15T17:37:41.023Z,5.30
2022-10-15T17:40:10.358Z,11.17
2022-10-15T17:42:42.960Z,3.70
2022-10-15T17:45:12.289Z,2.40
2022-10-15T17:47:40.431Z,1.83
2022-10-15T17:50:09.580Z,3.17
2022-10-15T17:52:37.695Z,6.67
2022-10-15T17:55:06.835Z,5.63
2022-10-15T17:57:35.077Z,11.23
2022-10-15T18:00:07.889Z,3.60
2022-10-15T18:02:36.815Z,3.27
2022-10-15T18:05:05.429Z,6.03
2022-10-15T18:07:33.624Z,7.77
2022-10-15T18:10:02.399Z,4.90
2022-10-15T18:12:30.918Z,3.43
2022-10-15T18:14:59.315Z,3.07
2022-10-15T18:17:29.559Z,6.17
2022-10-15T18:19:57.845Z,6.40
2022-10-15T18:22:26.062Z,4.13
2022-10-15T18:24:56.213Z,4.03
2022-10-15T18:27:25.558Z,4.30
2022-10-15T18:29:54.147Z,6.80
2022-10-15T18:32:22.361Z,7.97
2022-10-15T18:34:52.196Z,12.00
2022-10-15T18:37:20.426Z,5.57
2022-10-15T18:39:48.706Z,9.80
2022-10-15T18:42:17.015Z,4.70
2022-10-15T18:44:45.521Z,3.77
2022-10-15T18:47:14.043Z,3.53
2022-10-15T18:49:43.289Z,2.10
2022-10-15T18:52:21.711Z,2.73
2022-10-15T18:55:01.580Z,1.40
2022-10-15T18:57:31.690Z,2.10
2022-10-15T19:00:00.262Z,3.77
2022-10-15T19:02:29.118Z,6.13
2022-10-15T19:04:57.258Z,6.00
2022-10-15T19:07:29.999Z,2.20
2022-10-15T19:10:00.499Z,3.33
2022-10-15T19:12:29.127Z,1.60
2022-10-15T19:14:57.569Z,2.00
2022-10-15T19:17:25.798Z,1.47
2022-10-15T19:19:54.257Z,9.50
2022-10-15T19:22:22.520Z,3.77
2022-10-15T19:24:52.221Z,4.40
2022-10-15T19:27:20.415Z,1.70
2022-10-15T19:29:49.216Z,1.47
2022-10-15T19:32:17.434Z,2.03
2022-10-15T19:34:46.017Z,1.80
2022-10-15T19:37:14.244Z,2.97
2022-10-15T19:39:48.157Z,1.37
2022-10-15T19:42:18.326Z,1.40
2022-10-15T19:44:46.505Z,2.47
2022-10-15T19:47:19.337Z,2.60
2022-10-15T19:49:47.774Z,1.30
2022-10-15T19:52:15.907Z,1.93
2022-10-15T19:54:44.933Z,2.13
2022-10-15T19:57:14.571Z,0.60
2022-10-15T19:59:44.454Z,1.23
2022-10-15T20:02:13.781Z,2.90
2022-10-15T20:04:42.144Z,2.80
2022-10-15T20:07:10.249Z,7.13
2022-10-15T20:09:41.035Z,6.43
2022-10-15T20:12:10.686Z,1.00
2022-10-15T20:14:40.157Z,1.65
2022-10-15T20:17:09.778Z,1.00
2022-10-15T20:19:37.949Z,1.50
2022-10-15T20:22:06.184Z,5.20
2022-10-15T20:24:34.422Z,1.50
2022-10-15T20:27:03.186Z,0.83
2022-10-15T20:29:31.569Z,1.40
2022-10-15T20:32:05.859Z,1.27
2022-10-15T20:34:46.384Z,2.43
2022-10-15T20:37:17.125Z,1.10
2022-10-15T20:39:45.678Z,1.37
2022-10-15T20:42:13.858Z,1.73
2022-10-15T20:44:42.420Z,2.33
2022-10-15T20:47:14.143Z,1.87
2022-10-15T20:49:45.455Z,0.77
2022-10-15T20:52:15.736Z,3.40
2022-10-15T20:54:44.076Z,1.63
2022-10-15T20:57:12.663Z,1.57
2022-10-15T20:59:40.903Z,2.17
2022-10-15T21:02:09.010Z,6.33
2022-10-15T21:04:37.222Z,2.53
2022-10-15T21:07:05.460Z,1.30
2022-10-15T21:09:34.951Z,3.10
2022-10-15T21:12:05.876Z,2.33
2022-10-15T21:14:35.437Z,3.07
2022-10-15T21:17:03.898Z,2.27
2022-10-15T21:19:32.803Z,3.37
2022-10-15T21:22:00.965Z,3.30
2022-10-15T21:24:30.101Z,3.93
2022-10-15T21:26:59.586Z,2.63
2022-10-15T21:29:28.260Z,7.97
2022-10-15T21:31:56.394Z,4.90
2022-10-15T21:34:27.815Z,3.97
2022-10-15T21:36:56.387Z,3.10
2022-10-15T21:39:24.635Z,4.67
2022-10-15T21:41:53.103Z,2.77
2022-10-15T21:44:22.597Z,2.87
2022-10-15T21:46:50.736Z,2.60
2022-10-15T21:49:18.923Z,2.00
2022-10-15T21:51:47.099Z,0.80
2022-10-15T21:54:15.227Z,2.40
2022-10-15T21:56:43.411Z,2.47
2022-10-15T21:59:11.551Z,4.13
2022-10-15T22:01:45.529Z,3.70
2022-10-15T22:04:14.478Z,4.10
2022-10-15T22:06:43.451Z,0.90
2022-10-15T22:09:13.545Z,2.47
2022-10-15T22:11:43.854Z,2.33
2022-10-15T22:14:14.343Z,0.87
2022-10-15T22:16:45.188Z,0.50
2022-10-15T22:19:18.591Z,6.33
2022-10-15T22:21:47.743Z,1.33
2022-10-15T22:24:18.633Z,1.20
2022-10-15T22:26:49.274Z,1.80
2022-10-15T22:29:20.817Z,0.40
2022-10-15T22:31:52.766Z,0.87
2022-10-15T22:34:23.845Z,0.40
2022-10-15T22:36:53.252Z,0.77
2022-10-15T22:39:22.057Z,0.50
2022-10-15T22:41:51.544Z,0.90
2022-10-15T22:44:22.707Z,1.07
2022-10-15T22:46:53.808Z,1.30
2022-10-15T22:49:23.886Z,1.17
2022-10-15T22:51:53.413Z,0.80
2022-10-15T22:54:24.145Z,2.20
2022-10-15T22:56:52.678Z,3.53
2022-10-15T22:59:20.870Z,2.33
2022-10-15T23:01:48.926Z,0.60
2022-10-15T23:04:18.350Z,0.80
2022-10-15T23:06:46.475Z,1.33
2022-10-15T23:09:17.787Z,1.73
2022-10-15T23:11:46.713Z,2.07
2022-10-15T23:14:16.601Z,1.53
2022-10-15T23:16:47.088Z,1.47
2022-10-15T23:19:17.400Z,0.70
2022-10-15T23:21:48.326Z,0.80
2022-10-15T23:24:18.110Z,0.87
2022-10-15T23:26:46.955Z,2.10
2022-10-15T23:29:19.923Z,1.33
2022-10-15T23:31:49.221Z,1.40
2022-10-15T23:34:19.617Z,0.60
2022-10-15T23:36:49.207Z,0.80
2022-10-15T23:39:18.951Z,1.93
2022-10-15T23:41:47.849Z,0.53
2022-10-15T23:44:16.059Z,0.43
2022-10-15T23:46:44.608Z,1.57
2022-10-15T23:49:13.003Z,0.50
2022-10-15T23:51:41.491Z,0.47
2022-10-15T23:54:15.085Z,0.90
2022-10-15T23:56:43.608Z,2.53
2022-10-15T23:59:11.892Z,2.13
